sensor_id;sensor_type;location;lat;lon;timestamp;P1;durP1;ratioP1;P2;durP2;ratioP2
25111;SDS011;13092;51.996;4.458;2023-06-01T00:01:23;56.97;;;51.58;;
25111;SDS011;13092;51.996;4.458;2023-06-01T00:03:53;57.60;;;52.00;;
25111;SDS011;13092;51.996;4.458;2023-06-01T00:06:21;56.70;;;51.35;;
25111;SDS011;13092;51.996;4.458;2023-06-01T00:08:49;58.60;;;52.67;;
25111;SDS011;13092;51.996;4.458;2023-06-01T00:11:17;57.95;;;52.60;;
25111;SDS011;13092;51.996;4.458;2023-06-01T00:13:46;58.83;;;53.30;;
25111;SDS011;13092;51.996;4.458;2023-06-01T00:16:16;58.10;;;52.85;;
25111;SDS011;13092;51.996;4.458;2023-06-01T00:18:45;59.92;;;54.28;;
25111;SDS011;13092;51.996;4.458;2023-06-01T00:21:13;57.50;;;51.97;;
25111;SDS011;13092;51.996;4.458;2023-06-01T00:23:41;58.35;;;52.83;;
25111;SDS011;13092;51.996;4.458;2023-06-01T00:26:10;58.47;;;53.13;;
25111;SDS011;13092;51.996;4.458;2023-06-01T00:28:38;59.20;;;53.72;;
25111;SDS011;13092;51.996;4.458;2023-06-01T00:31:06;57.20;;;51.50;;
25111;SDS011;13092;51.996;4.458;2023-06-01T00:33:36;59.15;;;53.67;;
25111;SDS011;13092;51.996;4.458;2023-06-01T00:36:04;58.40;;;53.30;;
25111;SDS011;13092;51.996;4.458;2023-06-01T00:38:33;57.15;;;51.70;;
25111;SDS011;13092;51.996;4.458;2023-06-01T00:41:01;56.22;;;51.13;;
25111;SDS011;13092;51.996;4.458;2023-06-01T00:43:29;56.95;;;51.90;;
25111;SDS011;13092;51.996;4.458;2023-06-01T00:45:58;57.17;;;51.72;;
25111;SDS011;13092;51.996;4.458;2023-06-01T00:48:26;57.78;;;52.45;;
25111;SDS011;13092;51.996;4.458;2023-06-01T00:50:56;54.40;;;49.47;;
25111;SDS011;13092;51.996;4.458;2023-06-01T00:53:26;54.60;;;49.50;;
25111;SDS011;13092;51.996;4.458;2023-06-01T00:55:54;56.38;;;51.28;;
25111;SDS011;13092;51.996;4.458;2023-06-01T00:58:22;55.78;;;50.78;;
25111;SDS011;13092;51.996;4.458;2023-06-01T01:00:51;55.85;;;50.95;;
25111;SDS011;13092;51.996;4.458;2023-06-01T01:03:20;55.47;;;50.35;;
25111;SDS011;13092;51.996;4.458;2023-06-01T01:05:53;54.33;;;49.35;;
25111;SDS011;13092;51.996;4.458;2023-06-01T01:08:30;56.05;;;50.95;;
25111;SDS011;13092;51.996;4.458;2023-06-01T01:11:04;54.08;;;49.40;;
25111;SDS011;13092;51.996;4.458;2023-06-01T01:13:37;55.67;;;50.67;;
25111;SDS011;13092;51.996;4.458;2023-06-01T01:16:14;56.25;;;51.30;;
25111;SDS011;13092;51.996;4.458;2023-06-01T01:18:49;55.20;;;50.22;;
25111;SDS011;13092;51.996;4.458;2023-06-01T01:21:25;54.75;;;49.85;;
25111;SDS011;13092;51.996;4.458;2023-06-01T01:24:21;56.47;;;51.47;;
25111;SDS011;13092;51.996;4.458;2023-06-01T01:27:10;54.10;;;49.38;;
25111;SDS011;13092;51.996;4.458;2023-06-01T01:29:53;54.88;;;50.13;;
25111;SDS011;13092;51.996;4.458;2023-06-01T01:32:27;55.55;;;50.53;;
25111;SDS011;13092;51.996;4.458;2023-06-01T01:34:56;55.10;;;50.25;;
25111;SDS011;13092;51.996;4.458;2023-06-01T01:37:26;56.00;;;51.20;;
25111;SDS011;13092;51.996;4.458;2023-06-01T01:39:54;55.67;;;50.58;;
25111;SDS011;13092;51.996;4.458;2023-06-01T01:42:22;55.60;;;50.45;;
25111;SDS011;13092;51.996;4.458;2023-06-01T01:44:52;56.20;;;51.35;;
25111;SDS011;13092;51.996;4.458;2023-06-01T01:47:24;55.65;;;50.80;;
25111;SDS011;13092;51.996;4.458;2023-06-01T01:49:59;55.72;;;50.85;;
25111;SDS011;13092;51.996;4.458;2023-06-01T01:52:34;56.28;;;51.28;;
25111;SDS011;13092;51.996;4.458;2023-06-01T01:55:05;56.83;;;51.55;;
25111;SDS011;13092;51.996;4.458;2023-06-01T01:57:36;56.05;;;51.17;;
25111;SDS011;13092;51.996;4.458;2023-06-01T02:00:07;55.15;;;50.35;;
25111;SDS011;13092;51.996;4.458;2023-06-01T02:02:38;54.47;;;49.65;;
25111;SDS011;13092;51.996;4.458;2023-06-01T02:05:06;56.15;;;50.85;;
25111;SDS011;13092;51.996;4.458;2023-06-01T02:07:35;56.80;;;51.65;;
25111;SDS011;13092;51.996;4.458;2023-06-01T02:10:05;56.50;;;51.03;;
25111;SDS011;13092;51.996;4.458;2023-06-01T02:12:34;54.92;;;49.95;;
25111;SDS011;13092;51.996;4.458;2023-06-01T02:15:03;57.20;;;52.08;;
25111;SDS011;13092;51.996;4.458;2023-06-01T02:17:33;55.72;;;50.72;;
25111;SDS011;13092;51.996;4.458;2023-06-01T02:20:04;56.25;;;51.13;;
25111;SDS011;13092;51.996;4.458;2023-06-01T02:22:33;54.28;;;49.58;;
25111;SDS011;13092;51.996;4.458;2023-06-01T02:25:01;57.20;;;52.20;;
25111;SDS011;13092;51.996;4.458;2023-06-01T02:27:31;54.25;;;49.53;;
25111;SDS011;13092;51.996;4.458;2023-06-01T02:29:59;55.25;;;50.47;;
25111;SDS011;13092;51.996;4.458;2023-06-01T02:32:27;55.90;;;50.95;;
25111;SDS011;13092;51.996;4.458;2023-06-01T02:34:58;57.25;;;52.15;;
25111;SDS011;13092;51.996;4.458;2023-06-01T02:37:27;57.50;;;52.20;;
25111;SDS011;13092;51.996;4.458;2023-06-01T02:39:55;56.28;;;51.13;;
25111;SDS011;13092;51.996;4.458;2023-06-01T02:42:23;55.50;;;50.15;;
25111;SDS011;13092;51.996;4.458;2023-06-01T02:44:51;55.13;;;49.78;;
25111;SDS011;13092;51.996;4.458;2023-06-01T02:47:19;55.13;;;50.13;;
25111;SDS011;13092;51.996;4.458;2023-06-01T02:49:47;55.22;;;49.83;;
25111;SDS011;13092;51.996;4.458;2023-06-01T02:52:17;53.10;;;48.35;;
25111;SDS011;13092;51.996;4.458;2023-06-01T02:54:45;55.38;;;50.33;;
25111;SDS011;13092;51.996;4.458;2023-06-01T02:57:16;57.58;;;52.53;;
25111;SDS011;13092;51.996;4.458;2023-06-01T02:59:44;56.85;;;51.80;;
25111;SDS011;13092;51.996;4.458;2023-06-01T03:02:12;58.47;;;53.35;;
25111;SDS011;13092;51.996;4.458;2023-06-01T03:04:41;57.40;;;52.20;;
25111;SDS011;13092;51.996;4.458;2023-06-01T03:07:09;59.17;;;53.85;;
25111;SDS011;13092;51.996;4.458;2023-06-01T03:09:40;58.22;;;52.83;;
25111;SDS011;13092;51.996;4.458;2023-06-01T03:12:08;58.83;;;53.63;;
25111;SDS011;13092;51.996;4.458;2023-06-01T03:14:37;59.65;;;54.17;;
25111;SDS011;13092;51.996;4.458;2023-06-01T03:17:10;59.88;;;54.78;;
25111;SDS011;13092;51.996;4.458;2023-06-01T03:19:39;58.58;;;53.40;;
25111;SDS011;13092;51.996;4.458;2023-06-01T03:22:07;57.15;;;52.38;;
25111;SDS011;13092;51.996;4.458;2023-06-01T03:24:35;57.90;;;52.90;;
25111;SDS011;13092;51.996;4.458;2023-06-01T03:27:09;58.50;;;53.45;;
25111;SDS011;13092;51.996;4.458;2023-06-01T03:29:37;58.33;;;53.08;;
25111;SDS011;13092;51.996;4.458;2023-06-01T03:32:07;58.50;;;53.25;;
25111;SDS011;13092;51.996;4.458;2023-06-01T03:34:36;59.10;;;53.60;;
25111;SDS011;13092;51.996;4.458;2023-06-01T03:37:06;58.13;;;52.90;;
25111;SDS011;13092;51.996;4.458;2023-06-01T03:39:35;58.30;;;52.88;;
25111;SDS011;13092;51.996;4.458;2023-06-01T03:42:03;59.22;;;53.92;;
25111;SDS011;13092;51.996;4.458;2023-06-01T03:44:33;57.38;;;52.17;;
25111;SDS011;13092;51.996;4.458;2023-06-01T03:47:04;57.08;;;51.58;;
25111;SDS011;13092;51.996;4.458;2023-06-01T03:49:36;57.78;;;52.38;;
25111;SDS011;13092;51.996;4.458;2023-06-01T03:52:04;57.75;;;52.40;;
25111;SDS011;13092;51.996;4.458;2023-06-01T03:54:33;56.03;;;51.22;;
25111;SDS011;13092;51.996;4.458;2023-06-01T03:57:02;56.72;;;51.28;;
25111;SDS011;13092;51.996;4.458;2023-06-01T03:59:30;56.95;;;51.75;;
25111;SDS011;13092;51.996;4.458;2023-06-01T04:02:00;55.85;;;50.90;;
25111;SDS011;13092;51.996;4.458;2023-06-01T04:04:29;56.67;;;51.50;;
25111;SDS011;13092;51.996;4.458;2023-06-01T04:06:59;56.25;;;51.22;;
25111;SDS011;13092;51.996;4.458;2023-06-01T04:09:29;56.65;;;51.65;;
25111;SDS011;13092;51.996;4.458;2023-06-01T04:11:57;56.38;;;51.22;;
25111;SDS011;13092;51.996;4.458;2023-06-01T04:14:25;55.55;;;50.65;;
25111;SDS011;13092;51.996;4.458;2023-06-01T04:16:55;54.20;;;49.35;;
25111;SDS011;13092;51.996;4.458;2023-06-01T04:19:23;54.58;;;49.55;;
25111;SDS011;13092;51.996;4.458;2023-06-01T04:21:51;54.22;;;49.35;;
25111;SDS011;13092;51.996;4.458;2023-06-01T04:24:20;53.97;;;49.30;;
25111;SDS011;13092;51.996;4.458;2023-06-01T04:26:48;54.70;;;50.10;;
25111;SDS011;13092;51.996;4.458;2023-06-01T04:29:17;56.13;;;51.03;;
25111;SDS011;13092;51.996;4.458;2023-06-01T04:31:47;53.90;;;49.17;;
25111;SDS011;13092;51.996;4.458;2023-06-01T04:34:17;54.28;;;49.47;;
25111;SDS011;13092;51.996;4.458;2023-06-01T04:36:47;55.58;;;50.67;;
25111;SDS011;13092;51.996;4.458;2023-06-01T04:39:17;56.83;;;51.70;;
25111;SDS011;13092;51.996;4.458;2023-06-01T04:41:50;56.55;;;51.35;;
25111;SDS011;13092;51.996;4.458;2023-06-01T04:44:19;55.53;;;50.72;;
25111;SDS011;13092;51.996;4.458;2023-06-01T04:46:48;55.10;;;50.17;;
25111;SDS011;13092;51.996;4.458;2023-06-01T04:49:17;55.88;;;50.72;;
25111;SDS011;13092;51.996;4.458;2023-06-01T04:51:45;55.97;;;50.95;;
25111;SDS011;13092;51.996;4.458;2023-06-01T04:54:17;56.95;;;51.50;;
25111;SDS011;13092;51.996;4.458;2023-06-01T04:56:46;55.25;;;50.22;;
25111;SDS011;13092;51.996;4.458;2023-06-01T04:59:14;55.75;;;50.83;;
25111;SDS011;13092;51.996;4.458;2023-06-01T05:01:42;55.45;;;50.08;;
25111;SDS011;13092;51.996;4.458;2023-06-01T05:04:10;55.63;;;50.63;;
25111;SDS011;13092;51.996;4.458;2023-06-01T05:06:40;55.90;;;50.90;;
25111;SDS011;13092;51.996;4.458;2023-06-01T05:09:08;56.40;;;51.08;;
25111;SDS011;13092;51.996;4.458;2023-06-01T05:11:36;56.35;;;51.00;;
25111;SDS011;13092;51.996;4.458;2023-06-01T05:14:05;55.60;;;50.55;;
25111;SDS011;13092;51.996;4.458;2023-06-01T05:16:34;55.97;;;50.78;;
25111;SDS011;13092;51.996;4.458;2023-06-01T05:19:02;55.58;;;49.92;;
25111;SDS011;13092;51.996;4.458;2023-06-01T05:21:30;54.78;;;49.83;;
25111;SDS011;13092;51.996;4.458;2023-06-01T05:24:00;55.92;;;50.47;;
25111;SDS011;13092;51.996;4.458;2023-06-01T05:26:32;54.95;;;49.78;;
25111;SDS011;13092;51.996;4.458;2023-06-01T05:29:00;56.28;;;50.83;;
25111;SDS011;13092;51.996;4.458;2023-06-01T05:31:30;55.40;;;50.42;;
25111;SDS011;13092;51.996;4.458;2023-06-01T05:33:58;55.20;;;50.28;;
25111;SDS011;13092;51.996;4.458;2023-06-01T05:36:26;55.00;;;49.97;;
25111;SDS011;13092;51.996;4.458;2023-06-01T05:38:55;55.72;;;50.60;;
25111;SDS011;13092;51.996;4.458;2023-06-01T05:41:24;56.45;;;51.20;;
25111;SDS011;13092;51.996;4.458;2023-06-01T05:43:53;58.45;;;52.45;;
25111;SDS011;13092;51.996;4.458;2023-06-01T05:46:21;55.80;;;50.60;;
25111;SDS011;13092;51.996;4.458;2023-06-01T05:48:51;57.40;;;52.10;;
25111;SDS011;13092;51.996;4.458;2023-06-01T05:51:19;58.53;;;52.85;;
25111;SDS011;13092;51.996;4.458;2023-06-01T05:53:47;57.67;;;52.67;;
25111;SDS011;13092;51.996;4.458;2023-06-01T05:56:15;58.92;;;53.63;;
25111;SDS011;13092;51.996;4.458;2023-06-01T05:58:45;58.28;;;53.00;;
25111;SDS011;13092;51.996;4.458;2023-06-01T06:01:17;58.90;;;53.75;;
25111;SDS011;13092;51.996;4.458;2023-06-01T06:03:46;57.70;;;52.30;;
25111;SDS011;13092;51.996;4.458;2023-06-01T06:06:14;59.45;;;53.80;;
25111;SDS011;13092;51.996;4.458;2023-06-01T06:08:43;60.58;;;55.00;;
25111;SDS011;13092;51.996;4.458;2023-06-01T06:11:11;60.08;;;54.88;;
25111;SDS011;13092;51.996;4.458;2023-06-01T06:13:40;59.67;;;54.17;;
25111;SDS011;13092;51.996;4.458;2023-06-01T06:16:10;60.45;;;54.85;;
25111;SDS011;13092;51.996;4.458;2023-06-01T06:18:38;61.97;;;56.08;;
25111;SDS011;13092;51.996;4.458;2023-06-01T06:21:06;62.85;;;57.05;;
25111;SDS011;13092;51.996;4.458;2023-06-01T06:23:34;63.13;;;57.42;;
25111;SDS011;13092;51.996;4.458;2023-06-01T06:26:03;63.97;;;58.17;;
25111;SDS011;13092;51.996;4.458;2023-06-01T06:28:31;63.50;;;57.72;;
25111;SDS011;13092;51.996;4.458;2023-06-01T06:31:00;63.90;;;57.88;;
25111;SDS011;13092;51.996;4.458;2023-06-01T06:33:31;64.97;;;58.95;;
25111;SDS011;13092;51.996;4.458;2023-06-01T06:35:59;65.47;;;59.70;;
25111;SDS011;13092;51.996;4.458;2023-06-01T06:38:27;64.40;;;58.75;;
25111;SDS011;13092;51.996;4.458;2023-06-01T06:40:56;64.97;;;58.83;;
25111;SDS011;13092;51.996;4.458;2023-06-01T06:43:24;65.10;;;59.33;;
25111;SDS011;13092;51.996;4.458;2023-06-01T06:45:52;65.55;;;59.55;;
25111;SDS011;13092;51.996;4.458;2023-06-01T06:48:21;65.28;;;59.42;;
25111;SDS011;13092;51.996;4.458;2023-06-01T06:50:51;66.05;;;59.92;;
25111;SDS011;13092;51.996;4.458;2023-06-01T06:53:19;66.10;;;60.25;;
25111;SDS011;13092;51.996;4.458;2023-06-01T06:55:47;65.47;;;59.55;;
25111;SDS011;13092;51.996;4.458;2023-06-01T06:58:15;65.75;;;59.95;;
25111;SDS011;13092;51.996;4.458;2023-06-01T07:00:43;66.15;;;60.08;;
25111;SDS011;13092;51.996;4.458;2023-06-01T07:03:12;64.75;;;58.90;;
25111;SDS011;13092;51.996;4.458;2023-06-01T07:05:40;67.05;;;61.25;;
25111;SDS011;13092;51.996;4.458;2023-06-01T07:08:12;65.13;;;59.10;;
25111;SDS011;13092;51.996;4.458;2023-06-01T07:10:41;68.40;;;62.33;;
25111;SDS011;13092;51.996;4.458;2023-06-01T07:13:09;67.95;;;61.85;;
25111;SDS011;13092;51.996;4.458;2023-06-01T07:15:37;68.00;;;61.92;;
25111;SDS011;13092;51.996;4.458;2023-06-01T07:18:05;69.72;;;63.63;;
25111;SDS011;13092;51.996;4.458;2023-06-01T07:20:34;69.30;;;63.40;;
25111;SDS011;13092;51.996;4.458;2023-06-01T07:23:02;67.38;;;61.58;;
25111;SDS011;13092;51.996;4.458;2023-06-01T07:25:33;69.30;;;63.47;;
25111;SDS011;13092;51.996;4.458;2023-06-01T07:28:01;67.82;;;62.15;;
25111;SDS011;13092;51.996;4.458;2023-06-01T07:30:34;66.78;;;61.03;;
25111;SDS011;13092;51.996;4.458;2023-06-01T07:33:02;65.68;;;60.13;;
25111;SDS011;13092;51.996;4.458;2023-06-01T07:35:31;62.72;;;57.30;;
25111;SDS011;13092;51.996;4.458;2023-06-01T07:37:59;65.65;;;60.17;;
25111;SDS011;13092;51.996;4.458;2023-06-01T07:40:29;60.90;;;56.15;;
25111;SDS011;13092;51.996;4.458;2023-06-01T07:42:59;63.03;;;57.80;;
25111;SDS011;13092;51.996;4.458;2023-06-01T07:45:28;61.90;;;56.90;;
25111;SDS011;13092;51.996;4.458;2023-06-01T07:47:56;63.10;;;57.88;;
25111;SDS011;13092;51.996;4.458;2023-06-01T07:50:24;64.30;;;58.88;;
25111;SDS011;13092;51.996;4.458;2023-06-01T07:52:57;64.45;;;59.08;;
25111;SDS011;13092;51.996;4.458;2023-06-01T07:55:25;59.95;;;54.72;;
25111;SDS011;13092;51.996;4.458;2023-06-01T07:57:54;63.35;;;57.80;;
25111;SDS011;13092;51.996;4.458;2023-06-01T08:00:24;64.28;;;59.15;;
25111;SDS011;13092;51.996;4.458;2023-06-01T08:02:52;61.83;;;57.00;;
25111;SDS011;13092;51.996;4.458;2023-06-01T08:05:21;61.42;;;56.83;;
25111;SDS011;13092;51.996;4.458;2023-06-01T08:07:49;66.85;;;61.45;;
25111;SDS011;13092;51.996;4.458;2023-06-01T08:10:21;63.00;;;58.20;;
25111;SDS011;13092;51.996;4.458;2023-06-01T08:12:52;61.83;;;57.08;;
25111;SDS011;13092;51.996;4.458;2023-06-01T08:15:24;62.85;;;58.10;;
25111;SDS011;13092;51.996;4.458;2023-06-01T08:17:54;64.90;;;59.63;;
25111;SDS011;13092;51.996;4.458;2023-06-01T08:20:23;65.72;;;60.83;;
25111;SDS011;13092;51.996;4.458;2023-06-01T08:22:53;69.25;;;63.90;;
25111;SDS011;13092;51.996;4.458;2023-06-01T08:25:21;65.43;;;60.22;;
25111;SDS011;13092;51.996;4.458;2023-06-01T08:27:49;65.45;;;60.63;;
25111;SDS011;13092;51.996;4.458;2023-06-01T08:30:17;63.90;;;59.05;;
25111;SDS011;13092;51.996;4.458;2023-06-01T08:32:47;62.20;;;57.60;;
25111;SDS011;13092;51.996;4.458;2023-06-01T08:35:16;64.88;;;60.05;;
25111;SDS011;13092;51.996;4.458;2023-06-01T08:37:46;63.90;;;59.05;;
25111;SDS011;13092;51.996;4.458;2023-06-01T08:40:15;62.70;;;58.05;;
25111;SDS011;13092;51.996;4.458;2023-06-01T08:42:46;63.40;;;58.90;;
25111;SDS011;13092;51.996;4.458;2023-06-01T08:45:22;61.95;;;57.55;;
25111;SDS011;13092;51.996;4.458;2023-06-01T08:47:53;63.33;;;58.97;;
25111;SDS011;13092;51.996;4.458;2023-06-01T08:50:22;68.55;;;63.67;;
25111;SDS011;13092;51.996;4.458;2023-06-01T08:52:52;65.65;;;61.13;;
25111;SDS011;13092;51.996;4.458;2023-06-01T08:55:22;65.32;;;60.83;;
25111;SDS011;13092;51.996;4.458;2023-06-01T08:57:50;69.97;;;65.18;;
25111;SDS011;13092;51.996;4.458;2023-06-01T09:00:20;70.00;;;64.70;;
25111;SDS011;13092;51.996;4.458;2023-06-01T09:02:49;68.85;;;63.70;;
25111;SDS011;13092;51.996;4.458;2023-06-01T09:05:19;73.85;;;68.63;;
25111;SDS011;13092;51.996;4.458;2023-06-01T09:07:47;69.15;;;64.55;;
25111;SDS011;13092;51.996;4.458;2023-06-01T09:10:19;71.70;;;66.82;;
25111;SDS011;13092;51.996;4.458;2023-06-01T09:12:51;70.78;;;66.20;;
25111;SDS011;13092;51.996;4.458;2023-06-01T09:15:20;64.38;;;60.33;;
25111;SDS011;13092;51.996;4.458;2023-06-01T09:17:52;65.82;;;61.42;;
25111;SDS011;13092;51.996;4.458;2023-06-01T09:20:34;64.32;;;60.03;;
25111;SDS011;13092;51.996;4.458;2023-06-01T09:23:04;61.25;;;57.45;;
25111;SDS011;13092;51.996;4.458;2023-06-01T09:25:33;50.67;;;47.30;;
25111;SDS011;13092;51.996;4.458;2023-06-01T09:28:02;51.58;;;48.03;;
25111;SDS011;13092;51.996;4.458;2023-06-01T09:30:38;44.92;;;42.00;;
25111;SDS011;13092;51.996;4.458;2023-06-01T09:33:09;32.33;;;29.92;;
25111;SDS011;13092;51.996;4.458;2023-06-01T09:35:41;18.90;;;17.08;;
25111;SDS011;13092;51.996;4.458;2023-06-01T09:38:11;14.65;;;12.85;;
25111;SDS011;13092;51.996;4.458;2023-06-01T09:40:55;14.27;;;10.23;;
25111;SDS011;13092;51.996;4.458;2023-06-01T09:43:24;12.07;;;8.00;;
25111;SDS011;13092;51.996;4.458;2023-06-01T09:46:03;10.43;;;7.00;;
25111;SDS011;13092;51.996;4.458;2023-06-01T09:48:32;11.25;;;6.82;;
25111;SDS011;13092;51.996;4.458;2023-06-01T09:51:03;11.27;;;6.50;;
25111;SDS011;13092;51.996;4.458;2023-06-01T09:53:41;10.25;;;6.38;;
25111;SDS011;13092;51.996;4.458;2023-06-01T09:56:10;12.90;;;6.90;;
25111;SDS011;13092;51.996;4.458;2023-06-01T09:58:38;10.52;;;6.13;;
25111;SDS011;13092;51.996;4.458;2023-06-01T10:01:07;10.20;;;5.38;;
25111;SDS011;13092;51.996;4.458;2023-06-01T10:03:36;11.15;;;5.80;;
25111;SDS011;13092;51.996;4.458;2023-06-01T10:06:11;8.93;;;5.40;;
25111;SDS011;13092;51.996;4.458;2023-06-01T10:08:40;12.05;;;4.85;;
25111;SDS011;13092;51.996;4.458;2023-06-01T10:11:09;9.07;;;5.00;;
25111;SDS011;13092;51.996;4.458;2023-06-01T10:13:38;11.45;;;5.50;;
25111;SDS011;13092;51.996;4.458;2023-06-01T10:16:08;7.30;;;4.78;;
25111;SDS011;13092;51.996;4.458;2023-06-01T10:18:37;11.20;;;4.88;;
25111;SDS011;13092;51.996;4.458;2023-06-01T10:21:07;12.80;;;5.53;;
25111;SDS011;13092;51.996;4.458;2023-06-01T10:23:37;9.18;;;5.43;;
25111;SDS011;13092;51.996;4.458;2023-06-01T10:26:06;10.75;;;5.85;;
25111;SDS011;13092;51.996;4.458;2023-06-01T10:28:38;9.95;;;5.45;;
25111;SDS011;13092;51.996;4.458;2023-06-01T10:34:03;10.23;;;5.35;;
25111;SDS011;13092;51.996;4.458;2023-06-01T10:39:53;11.75;;;5.50;;
25111;SDS011;13092;51.996;4.458;2023-06-01T10:42:46;8.77;;;4.80;;
25111;SDS011;13092;51.996;4.458;2023-06-01T10:48:07;10.07;;;5.22;;
25111;SDS011;13092;51.996;4.458;2023-06-01T10:50:38;14.57;;;5.10;;
25111;SDS011;13092;51.996;4.458;2023-06-01T10:53:26;12.32;;;5.45;;
25111;SDS011;13092;51.996;4.458;2023-06-01T11:01:45;10.65;;;5.80;;
25111;SDS011;13092;51.996;4.458;2023-06-01T11:04:15;10.30;;;4.85;;
25111;SDS011;13092;51.996;4.458;2023-06-01T11:06:43;9.52;;;4.68;;
25111;SDS011;13092;51.996;4.458;2023-06-01T11:09:12;8.57;;;4.63;;
25111;SDS011;13092;51.996;4.458;2023-06-01T11:14:30;10.77;;;4.40;;
25111;SDS011;13092;51.996;4.458;2023-06-01T11:19:58;9.02;;;4.30;;
25111;SDS011;13092;51.996;4.458;2023-06-01T11:22:36;10.75;;;4.55;;
25111;SDS011;13092;51.996;4.458;2023-06-01T11:25:05;9.65;;;4.22;;
25111;SDS011;13092;51.996;4.458;2023-06-01T11:27:39;10.13;;;4.15;;
25111;SDS011;13092;51.996;4.458;2023-06-01T11:30:11;9.02;;;4.40;;
25111;SDS011;13092;51.996;4.458;2023-06-01T11:32:45;7.18;;;4.05;;
25111;SDS011;13092;51.996;4.458;2023-06-01T11:35:16;7.97;;;3.67;;
25111;SDS011;13092;51.996;4.458;2023-06-01T11:37:51;10.20;;;4.40;;
25111;SDS011;13092;51.996;4.458;2023-06-01T11:40:23;11.98;;;4.82;;
25111;SDS011;13092;51.996;4.458;2023-06-01T11:43:01;8.43;;;3.95;;
25111;SDS011;13092;51.996;4.458;2023-06-01T11:45:29;7.50;;;3.90;;
25111;SDS011;13092;51.996;4.458;2023-06-01T11:47:58;7.70;;;3.33;;
25111;SDS011;13092;51.996;4.458;2023-06-01T11:50:37;9.45;;;3.80;;
25111;SDS011;13092;51.996;4.458;2023-06-01T11:53:14;6.97;;;3.53;;
25111;SDS011;13092;51.996;4.458;2023-06-01T11:55:47;8.25;;;3.55;;
25111;SDS011;13092;51.996;4.458;2023-06-01T11:58:22;7.72;;;3.65;;
25111;SDS011;13092;51.996;4.458;2023-06-01T12:00:50;7.93;;;3.90;;
25111;SDS011;13092;51.996;4.458;2023-06-01T12:03:19;9.98;;;3.97;;
25111;SDS011;13092;51.996;4.458;2023-06-01T12:05:47;7.55;;;3.65;;
25111;SDS011;13092;51.996;4.458;2023-06-01T12:08:16;6.97;;;2.90;;
25111;SDS011;13092;51.996;4.458;2023-06-01T12:10:47;9.23;;;3.42;;
25111;SDS011;13092;51.996;4.458;2023-06-01T12:13:17;7.18;;;3.78;;
25111;SDS011;13092;51.996;4.458;2023-06-01T12:15:51;8.40;;;3.53;;
25111;SDS011;13092;51.996;4.458;2023-06-01T12:18:28;9.88;;;3.85;;
25111;SDS011;13092;51.996;4.458;2023-06-01T12:20:58;6.90;;;3.65;;
25111;SDS011;13092;51.996;4.458;2023-06-01T12:23:27;7.70;;;3.35;;
25111;SDS011;13092;51.996;4.458;2023-06-01T12:25:57;8.77;;;3.30;;
25111;SDS011;13092;51.996;4.458;2023-06-01T12:28:26;8.07;;;3.03;;
25111;SDS011;13092;51.996;4.458;2023-06-01T12:31:11;5.78;;;3.03;;
25111;SDS011;13092;51.996;4.458;2023-06-01T12:33:40;8.10;;;3.25;;
25111;SDS011;13092;51.996;4.458;2023-06-01T12:36:09;6.03;;;3.17;;
25111;SDS011;13092;51.996;4.458;2023-06-01T12:38:49;8.65;;;3.40;;
25111;SDS011;13092;51.996;4.458;2023-06-01T12:41:18;9.30;;;3.70;;
25111;SDS011;13092;51.996;4.458;2023-06-01T12:43:47;7.63;;;3.42;;
25111;SDS011;13092;51.996;4.458;2023-06-01T12:46:21;9.15;;;3.30;;
25111;SDS011;13092;51.996;4.458;2023-06-01T12:48:50;7.40;;;3.20;;
25111;SDS011;13092;51.996;4.458;2023-06-01T12:51:20;7.95;;;3.20;;
25111;SDS011;13092;51.996;4.458;2023-06-01T12:53:49;6.97;;;3.50;;
25111;SDS011;13092;51.996;4.458;2023-06-01T12:56:18;7.30;;;3.83;;
25111;SDS011;13092;51.996;4.458;2023-06-01T12:58:46;5.47;;;3.10;;
25111;SDS011;13092;51.996;4.458;2023-06-01T13:01:17;9.55;;;3.40;;
25111;SDS011;13092;51.996;4.458;2023-06-01T13:03:47;7.25;;;3.30;;
25111;SDS011;13092;51.996;4.458;2023-06-01T13:06:15;8.60;;;2.75;;
25111;SDS011;13092;51.996;4.458;2023-06-01T13:08:44;3.97;;;2.47;;
25111;SDS011;13092;51.996;4.458;2023-06-01T13:11:13;4.60;;;2.35;;
25111;SDS011;13092;51.996;4.458;2023-06-01T13:13:42;5.13;;;2.55;;
25111;SDS011;13092;51.996;4.458;2023-06-01T13:16:13;5.10;;;2.60;;
25111;SDS011;13092;51.996;4.458;2023-06-01T13:18:42;3.45;;;2.47;;
25111;SDS011;13092;51.996;4.458;2023-06-01T13:21:15;3.90;;;2.47;;
25111;SDS011;13092;51.996;4.458;2023-06-01T13:23:43;5.75;;;3.03;;
25111;SDS011;13092;51.996;4.458;2023-06-01T13:26:12;5.93;;;3.15;;
25111;SDS011;13092;51.996;4.458;2023-06-01T13:28:41;5.03;;;2.90;;
25111;SDS011;13092;51.996;4.458;2023-06-01T13:31:09;5.50;;;3.20;;
25111;SDS011;13092;51.996;4.458;2023-06-01T13:33:38;5.38;;;3.45;;
25111;SDS011;13092;51.996;4.458;2023-06-01T13:36:06;5.07;;;3.38;;
25111;SDS011;13092;51.996;4.458;2023-06-01T13:38:38;14.40;;;3.53;;
25111;SDS011;13092;51.996;4.458;2023-06-01T13:41:07;6.38;;;3.00;;
25111;SDS011;13092;51.996;4.458;2023-06-01T13:43:35;7.03;;;3.42;;
25111;SDS011;13092;51.996;4.458;2023-06-01T13:46:04;6.93;;;3.67;;
25111;SDS011;13092;51.996;4.458;2023-06-01T13:48:34;5.90;;;3.30;;
25111;SDS011;13092;51.996;4.458;2023-06-01T13:51:02;5.95;;;3.70;;
25111;SDS011;13092;51.996;4.458;2023-06-01T13:53:32;6.63;;;3.90;;
25111;SDS011;13092;51.996;4.458;2023-06-01T13:56:02;5.68;;;3.58;;
25111;SDS011;13092;51.996;4.458;2023-06-01T13:58:31;7.35;;;3.35;;
25111;SDS011;13092;51.996;4.458;2023-06-01T14:01:00;4.25;;;2.70;;
25111;SDS011;13092;51.996;4.458;2023-06-01T14:03:29;5.30;;;3.25;;
25111;SDS011;13092;51.996;4.458;2023-06-01T14:05:58;4.80;;;2.33;;
25111;SDS011;13092;51.996;4.458;2023-06-01T14:08:26;3.72;;;2.33;;
25111;SDS011;13092;51.996;4.458;2023-06-01T14:10:54;5.07;;;2.50;;
25111;SDS011;13092;51.996;4.458;2023-06-01T14:13:26;5.57;;;2.50;;
25111;SDS011;13092;51.996;4.458;2023-06-01T14:15:55;7.40;;;2.92;;
25111;SDS011;13092;51.996;4.458;2023-06-01T14:18:23;7.72;;;2.95;;
25111;SDS011;13092;51.996;4.458;2023-06-01T14:20:52;5.28;;;2.92;;
25111;SDS011;13092;51.996;4.458;2023-06-01T14:23:20;9.05;;;3.40;;
25111;SDS011;13092;51.996;4.458;2023-06-01T14:25:48;6.35;;;3.13;;
25111;SDS011;13092;51.996;4.458;2023-06-01T14:28:16;5.93;;;3.53;;
25111;SDS011;13092;51.996;4.458;2023-06-01T14:30:46;7.28;;;3.90;;
25111;SDS011;13092;51.996;4.458;2023-06-01T14:33:15;9.68;;;4.68;;
25111;SDS011;13092;51.996;4.458;2023-06-01T14:35:43;7.43;;;3.95;;
25111;SDS011;13092;51.996;4.458;2023-06-01T14:38:11;9.68;;;3.85;;
25111;SDS011;13092;51.996;4.458;2023-06-01T14:40:39;11.18;;;4.63;;
25111;SDS011;13092;51.996;4.458;2023-06-01T14:43:07;9.00;;;3.60;;
25111;SDS011;13092;51.996;4.458;2023-06-01T14:45:36;6.85;;;3.88;;
25111;SDS011;13092;51.996;4.458;2023-06-01T14:48:05;7.35;;;3.72;;
25111;SDS011;13092;51.996;4.458;2023-06-01T14:50:34;8.27;;;4.40;;
25111;SDS011;13092;51.996;4.458;2023-06-01T14:53:02;10.85;;;4.45;;
25111;SDS011;13092;51.996;4.458;2023-06-01T14:55:30;8.43;;;3.95;;
25111;SDS011;13092;51.996;4.458;2023-06-01T14:57:58;7.63;;;4.18;;
25111;SDS011;13092;51.996;4.458;2023-06-01T15:00:27;6.38;;;3.42;;
25111;SDS011;13092;51.996;4.458;2023-06-01T15:02:55;7.72;;;2.78;;
25111;SDS011;13092;51.996;4.458;2023-06-01T15:05:25;4.85;;;2.90;;